createdAt,value
2022-11-05T00:02:34.749Z,97362.77
2022-11-05T00:05:25.739Z,97364.40
2022-11-05T00:08:13.998Z,97373.34
2022-11-05T00:10:46.280Z,97372.61
2022-11-05T00:13:36.509Z,97371.44
2022-11-05T00:16:35.475Z,97376.13
2022-11-05T00:19:07.572Z,97378.20
2022-11-05T00:22:02.722Z,97384.80
2022-11-05T00:24:52.691Z,97393.57
2022-11-05T00:27:25.108Z,97404.60
2022-11-05T00:29:57.395Z,97410.25
2022-11-05T00:32:29.641Z,97407.40
2022-11-05T00:35:01.946Z,97398.70
2022-11-05T00:37:34.182Z,97393.60
2022-11-05T00:40:08.593Z,97401.19
2022-11-05T00:43:00.617Z,97406.70
2022-11-05T00:45:33.402Z,97415.54
2022-11-05T00:48:23.587Z,97426.98
2022-11-05T00:50:55.884Z,97434.58
2022-11-05T00:53:28.087Z,97441.93
2022-11-05T00:56:00.471Z,97449.02
2022-11-05T00:58:32.817Z,97441.80
2022-11-05T01:01:07.142Z,97446.58
2022-11-05T01:03:40.753Z,97448.15
2022-11-05T01:06:16.172Z,97447.58
2022-11-05T01:08:49.021Z,97452.09
2022-11-05T01:11:34.123Z,97453.86
2022-11-05T01:14:09.333Z,97451.04
2022-11-05T01:16:42.169Z,97456.39
2022-11-05T01:19:15.080Z,97454.94
2022-11-05T01:21:47.186Z,97450.34
2022-11-05T01:24:25.908Z,97457.02
2022-11-05T01:26:58.160Z,97450.42
2022-11-05T01:29:30.249Z,97447.62
2022-11-05T01:32:02.320Z,97450.83
2022-11-05T01:34:34.455Z,97455.70
2022-11-05T01:37:08.311Z,97458.20
2022-11-05T01:39:40.492Z,97454.36
2022-11-05T01:42:23.060Z,97451.73
2022-11-05T01:45:05.224Z,97456.25
2022-11-05T01:47:47.077Z,97459.51
2022-11-05T01:50:31.487Z,97463.46
2022-11-05T01:53:14.162Z,97477.25
2022-11-05T01:55:52.840Z,97470.92
2022-11-05T01:58:29.878Z,97469.42
2022-11-05T02:01:02.268Z,97472.36
2022-11-05T02:03:35.114Z,97478.08
2022-11-05T02:06:09.497Z,97480.34
2022-11-05T02:08:53.885Z,97476.55
2022-11-05T02:11:26.303Z,97476.70
2022-11-05T02:13:58.409Z,97481.21
2022-11-05T02:16:42.510Z,97482.46
2022-11-05T02:19:43.606Z,97485.36
2022-11-05T02:22:40.306Z,97493.16
2022-11-05T02:25:43.546Z,97496.05
2022-11-05T02:28:45.435Z,97499.23
2022-11-05T02:31:24.937Z,97507.16
2022-11-05T02:34:08.421Z,97514.29
2022-11-05T02:36:50.087Z,97520.66
2022-11-05T02:39:37.777Z,97522.52
2022-11-05T02:42:20.529Z,97533.16
2022-11-05T02:45:01.909Z,97538.91
2022-11-05T02:47:42.911Z,97536.91
2022-11-05T02:50:26.347Z,97543.23
2022-11-05T02:53:04.147Z,97545.10
2022-11-05T02:55:39.064Z,97547.70
2022-11-05T02:58:11.801Z,97554.39
2022-11-05T03:00:49.633Z,97559.13
2022-11-05T03:03:32.111Z,97566.52
2022-11-05T03:06:37.906Z,97570.27
2022-11-05T03:09:49.957Z,97563.13
2022-11-05T03:12:32.036Z,97550.42
2022-11-05T03:15:16.957Z,97553.40
2022-11-05T03:18:00.277Z,97564.29
2022-11-05T03:20:39.042Z,97572.16
2022-11-05T03:23:27.885Z,97580.03
2022-11-05T03:26:05.995Z,97584.48
2022-11-05T03:28:41.919Z,97578.61
2022-11-05T03:31:15.594Z,97579.84
2022-11-05T03:33:50.224Z,97590.77
2022-11-05T03:36:26.549Z,97596.71
2022-11-05T03:39:02.679Z,97601.86
2022-11-05T03:41:37.111Z,97597.72
2022-11-05T03:44:16.764Z,97595.86
2022-11-05T03:46:53.179Z,97603.50
2022-11-05T03:49:30.863Z,97603.92
2022-11-05T03:52:08.584Z,97608.20
2022-11-05T03:54:41.217Z,97613.34
2022-11-05T03:57:19.385Z,97611.66
2022-11-05T03:59:53.148Z,97604.67
2022-11-05T04:02:28.501Z,97608.34
2022-11-05T04:05:00.684Z,97623.81
2022-11-05T04:07:50.706Z,97628.68
2022-11-05T04:10:40.347Z,97634.62
2022-11-05T04:13:25.411Z,97630.89
2022-11-05T04:16:16.655Z,97625.69
2022-11-05T04:18:48.726Z,97625.83
2022-11-05T04:21:38.728Z,97632.81
2022-11-05T04:24:14.788Z,97638.52
2022-11-05T04:26:47.536Z,97634.63
2022-11-05T04:29:37.096Z,97630.82
2022-11-05T04:32:09.455Z,97631.93
2022-11-05T04:34:41.594Z,97635.20
2022-11-05T04:37:13.658Z,97639.05
2022-11-05T04:39:45.767Z,97635.79
2022-11-05T04:42:17.833Z,97628.64
2022-11-05T04:44:50.313Z,97634.73
2022-11-05T04:47:23.195Z,97641.97
2022-11-05T04:49:55.289Z,97642.99
2022-11-05T04:52:27.376Z,97643.08
2022-11-05T04:55:02.379Z,97642.30
2022-11-05T04:57:34.841Z,97640.89
2022-11-05T05:00:09.325Z,97647.63
2022-11-05T05:02:43.551Z,97650.27
2022-11-05T05:05:16.197Z,97652.02
2022-11-05T05:07:48.302Z,97652.45
2022-11-05T05:10:20.752Z,97662.25
2022-11-05T05:12:52.764Z,97658.62
2022-11-05T05:15:25.536Z,97659.42
2022-11-05T05:17:57.648Z,97663.39
2022-11-05T05:20:47.376Z,97667.88
2022-11-05T05:23:19.481Z,97668.91
2022-11-05T05:25:51.529Z,97666.58
2022-11-05T05:28:23.703Z,97668.58
2022-11-05T05:30:59.404Z,97671.23
2022-11-05T05:33:32.100Z,97674.85
2022-11-05T05:36:11.111Z,97676.58
2022-11-05T05:38:44.015Z,97675.35
2022-11-05T05:41:16.409Z,97681.19
2022-11-05T05:43:50.132Z,97687.96
2022-11-05T05:46:22.131Z,97693.98
2022-11-05T05:48:54.906Z,97701.06
2022-11-05T05:51:27.060Z,97703.02
2022-11-05T05:53:59.206Z,97706.42
2022-11-05T05:56:31.366Z,97711.06
2022-11-05T05:59:03.553Z,97714.33
2022-11-05T06:01:35.665Z,97718.55
2022-11-05T06:04:12.237Z,97717.39
2022-11-05T06:06:46.909Z,97715.80
2022-11-05T06:09:19.290Z,97722.01
2022-11-05T06:11:51.332Z,97726.09
2022-11-05T06:14:23.451Z,97732.25
2022-11-05T06:16:55.487Z,97737.39
2022-11-05T06:19:27.522Z,97743.30
2022-11-05T06:21:59.520Z,97750.08
2022-11-05T06:24:31.522Z,97754.58
2022-11-05T06:27:03.613Z,97751.97
2022-11-05T06:29:35.609Z,97759.17
2022-11-05T06:32:07.911Z,97761.25
2022-11-05T06:34:40.019Z,97761.45
2022-11-05T06:37:12.666Z,97768.07
2022-11-05T06:39:45.107Z,97778.34
2022-11-05T06:42:19.084Z,97786.73
2022-11-05T06:44:52.119Z,97791.33
2022-11-05T06:47:26.802Z,97809.00
2022-11-05T06:49:59.242Z,97821.66
2022-11-05T06:52:31.468Z,97827.84
2022-11-05T06:55:03.947Z,97834.33
2022-11-05T06:57:38.185Z,97843.81
2022-11-05T07:00:12.303Z,97846.61
2022-11-05T07:02:47.155Z,97849.34
2022-11-05T07:05:19.642Z,97850.63
2022-11-05T07:07:51.607Z,97855.13
2022-11-05T07:10:24.011Z,97857.91
2022-11-05T07:12:56.002Z,97859.66
2022-11-05T07:15:28.135Z,97863.70
2022-11-05T07:18:02.161Z,97866.85
2022-11-05T07:20:34.783Z,97867.23
2022-11-05T07:23:09.072Z,97866.79
2022-11-05T07:25:43.023Z,97868.10
2022-11-05T07:28:15.745Z,97876.17
2022-11-05T07:30:48.347Z,97880.09
2022-11-05T07:33:20.809Z,97885.89
2022-11-05T07:35:52.876Z,97885.95
2022-11-05T07:38:25.312Z,97888.45
2022-11-05T07:40:59.972Z,97887.48
2022-11-05T07:44:30.027Z,97890.79
2022-11-05T07:48:13.365Z,97898.95
2022-11-05T07:50:54.074Z,97897.44
2022-11-05T07:53:26.458Z,97900.02
2022-11-05T07:56:05.662Z,97898.27
2022-11-05T07:58:38.379Z,97905.85
2022-11-05T08:10:50.018Z,97923.11
2022-11-05T08:13:28.215Z,97926.02
2022-11-05T08:16:02.132Z,97926.52
2022-11-05T08:18:40.440Z,97929.32
2022-11-05T08:21:13.371Z,97930.27
2022-11-05T08:23:52.359Z,97934.05
2022-11-05T08:26:24.572Z,97934.61
2022-11-05T08:30:10.746Z,97931.16
2022-11-05T08:32:42.848Z,97926.55
2022-11-05T08:35:15.333Z,97925.17
2022-11-05T08:37:56.618Z,97921.64
2022-11-05T08:45:25.066Z,97929.28
2022-11-05T08:48:05.081Z,97937.92
2022-11-05T08:50:38.342Z,97943.94
2022-11-05T08:53:18.325Z,97951.10
2022-11-05T08:55:51.565Z,97956.51
2022-11-05T08:58:30.944Z,97962.77
2022-11-05T09:01:11.588Z,97962.63
2022-11-05T09:04:00.214Z,97966.14
2022-11-05T09:06:39.177Z,97964.84
2022-11-05T09:09:27.213Z,97968.99
2022-11-05T09:12:12.293Z,97971.92
2022-11-05T09:15:35.635Z,97971.92
2022-11-05T09:18:08.225Z,97971.79
2022-11-05T09:20:47.312Z,97975.27
2022-11-05T09:23:19.523Z,97973.63
2022-11-05T09:25:58.088Z,97978.51
2022-11-05T09:28:31.610Z,97977.41
2022-11-05T09:31:12.022Z,97975.59
2022-11-05T09:38:36.878Z,97979.95
2022-11-05T09:41:21.119Z,97978.00
2022-11-05T09:44:23.594Z,97988.91
2022-11-05T09:50:47.754Z,97994.34
2022-11-05T09:53:27.037Z,97999.56
2022-11-05T09:56:01.806Z,98001.96
2022-11-05T10:04:43.907Z,98002.79
2022-11-05T10:11:21.640Z,98007.75
2022-11-05T10:13:57.917Z,98007.59
2022-11-05T10:16:33.267Z,98006.66
2022-11-05T10:19:09.845Z,98003.91
2022-11-05T10:22:05.451Z,98002.80
2022-11-05T10:24:35.251Z,98003.45
2022-11-05T10:27:08.104Z,98007.02
2022-11-05T10:29:40.255Z,98013.50
2022-11-05T10:37:19.558Z,98024.78
2022-11-05T10:39:52.084Z,98028.23
2022-11-05T10:46:36.606Z,98028.60
2022-11-05T10:49:23.922Z,98027.32
2022-11-05T10:51:59.300Z,98030.35
2022-11-05T10:54:36.047Z,98033.16
2022-11-05T10:57:30.990Z,98040.42
2022-11-05T11:00:24.562Z,98046.55
2022-11-05T11:02:59.517Z,98056.47
2022-11-05T11:05:36.677Z,98057.81
2022-11-05T11:08:24.334Z,98052.21
2022-11-05T11:10:59.102Z,98045.80
2022-11-05T11:13:49.847Z,98045.63
2022-11-05T11:16:25.983Z,98047.86
2022-11-05T11:19:00.965Z,98051.30
2022-11-05T11:21:35.011Z,98057.38
2022-11-05T11:24:20.080Z,98059.14
2022-11-05T11:27:04.671Z,98061.38
2022-11-05T11:29:42.001Z,98061.98
2022-11-05T11:32:19.446Z,98062.13
2022-11-05T11:34:55.106Z,98065.12
2022-11-05T11:37:29.802Z,98066.76
2022-11-05T11:40:04.589Z,98069.66
2022-11-05T11:42:41.088Z,98077.86
2022-11-05T11:45:25.040Z,98076.05
2022-11-05T11:47:58.813Z,98073.77
2022-11-05T11:50:39.664Z,98063.19
2022-11-05T11:53:36.527Z,98068.14
2022-11-05T11:56:18.083Z,98081.50
2022-11-05T11:58:52.061Z,98088.71
2022-11-05T12:02:03.249Z,98090.42
2022-11-05T12:04:57.986Z,98089.33
2022-11-05T12:07:43.512Z,98094.83
2022-11-05T12:10:34.992Z,98097.45
2022-11-05T12:13:31.122Z,98099.27
2022-11-05T12:16:12.733Z,98096.01
2022-11-05T12:18:50.124Z,98097.98
2022-11-05T12:21:51.497Z,98095.73
2022-11-05T12:24:56.526Z,98089.27
2022-11-05T12:27:46.021Z,98089.92
2022-11-05T12:30:20.611Z,98090.44
2022-11-05T12:33:11.438Z,98105.73
2022-11-05T12:36:00.298Z,98118.70
2022-11-05T12:38:53.585Z,98125.46
2022-11-05T12:41:28.948Z,98128.46
2022-11-05T12:44:16.483Z,98135.36
2022-11-05T12:47:12.986Z,98134.58
2022-11-05T12:50:04.053Z,98138.52
2022-11-05T12:53:40.608Z,98144.79
2022-11-05T12:56:18.476Z,98140.95
2022-11-05T12:58:56.127Z,98135.85
2022-11-05T13:05:58.162Z,98146.05
2022-11-05T13:12:43.710Z,98155.48
2022-11-05T13:15:50.906Z,98158.45
2022-11-05T13:18:29.041Z,98162.81
2022-11-05T13:21:03.256Z,98162.17
2022-11-05T13:23:41.079Z,98168.44
2022-11-05T13:26:19.934Z,98173.66
2022-11-05T13:28:56.862Z,98168.92
2022-11-05T13:31:35.328Z,98169.36
2022-11-05T13:34:13.286Z,98175.17
2022-11-05T13:37:10.771Z,98180.67
2022-11-05T13:39:49.024Z,98188.13
2022-11-05T13:42:58.974Z,98196.74
2022-11-05T13:46:06.236Z,98195.33
2022-11-05T13:49:06.548Z,98195.75
2022-11-05T13:51:53.215Z,98200.08
2022-11-05T13:55:07.979Z,98204.59
2022-11-05T13:58:10.509Z,98207.04
2022-11-05T14:00:47.724Z,98213.33
2022-11-05T14:03:22.169Z,98216.97
2022-11-05T14:06:00.490Z,98217.55
2022-11-05T14:08:40.585Z,98225.41
2022-11-05T14:11:25.865Z,98223.54
2022-11-05T14:14:02.545Z,98214.52
2022-11-05T14:16:52.402Z,98218.33
2022-11-05T14:19:50.597Z,98224.34
2022-11-05T14:22:40.265Z,98230.13
2022-11-05T14:25:55.376Z,98230.73
2022-11-05T14:28:50.803Z,98230.91
2022-11-05T14:31:54.308Z,98238.60
2022-11-05T14:34:42.216Z,98247.05
2022-11-05T14:37:39.477Z,98255.27
2022-11-05T15:03:03.308Z,98293.46
2022-11-05T15:19:03.159Z,98300.42
2022-11-05T15:27:24.348Z,98309.55
2022-11-05T15:34:26.224Z,98323.65
2022-11-05T15:37:00.809Z,98323.02
2022-11-05T15:43:50.935Z,98326.44
2022-11-05T15:46:41.855Z,98330.11
2022-11-05T15:49:14.231Z,98335.39
2022-11-05T15:56:30.937Z,98338.68
2022-11-05T15:59:05.470Z,98341.17
2022-11-05T16:03:25.497Z,98342.95
2022-11-05T16:05:59.542Z,98346.93
2022-11-05T16:16:54.206Z,98365.64
2022-11-05T16:28:52.737Z,98372.89
2022-11-05T16:40:27.957Z,98393.98
2022-11-05T16:46:55.904Z,98392.59
2022-11-05T16:50:25.250Z,98396.08
2022-11-05T16:52:57.304Z,98400.92
2022-11-05T16:55:57.070Z,98402.59
2022-11-05T16:58:29.285Z,98410.23
2022-11-05T17:01:04.936Z,98413.70
2022-11-05T17:03:55.351Z,98418.63
2022-11-05T17:06:27.436Z,98421.88
2022-11-05T17:09:05.665Z,98422.11
2022-11-05T17:12:10.140Z,98420.58
2022-11-05T17:14:44.790Z,98421.14
2022-11-05T17:17:41.191Z,98422.50
2022-11-05T17:23:41.308Z,98434.05
2022-11-05T17:26:15.257Z,98434.90
2022-11-05T17:33:21.894Z,98430.02
2022-11-05T17:36:19.101Z,98431.89
2022-11-05T17:43:23.038Z,98435.38
2022-11-05T17:45:59.984Z,98433.27
2022-11-05T17:50:24.084Z,98437.92
2022-11-05T17:53:02.718Z,98436.69
2022-11-05T17:55:34.706Z,98437.95
2022-11-05T17:58:06.738Z,98438.63
2022-11-05T18:09:41.746Z,98445.00
2022-11-05T18:12:13.789Z,98441.77
2022-11-05T18:15:58.344Z,98443.21
2022-11-05T18:18:31.175Z,98449.07
2022-11-05T18:26:16.489Z,98466.49
2022-11-05T18:28:51.807Z,98468.35
2022-11-05T18:32:12.604Z,98471.41
2022-11-05T18:35:56.730Z,98476.53
2022-11-05T18:38:28.859Z,98477.33
2022-11-05T18:41:26.194Z,98481.27
2022-11-05T18:48:26.828Z,98486.67
2022-11-05T18:51:01.858Z,98488.02
2022-11-05T18:54:34.846Z,98486.40
2022-11-05T18:57:06.954Z,98483.57
2022-11-05T19:01:06.334Z,98495.74
2022-11-05T19:03:39.081Z,98505.55
2022-11-05T19:06:12.419Z,98508.35
2022-11-05T19:08:51.363Z,98509.94
2022-11-05T19:11:26.266Z,98511.18
2022-11-05T19:18:40.243Z,98513.98
2022-11-05T19:21:54.520Z,98512.58
2022-11-05T19:24:26.833Z,98511.26
2022-11-05T19:27:15.199Z,98518.40
2022-11-05T19:48:31.560Z,98549.85
2022-11-05T19:59:46.908Z,98573.45
2022-11-05T20:02:19.198Z,98576.15
2022-11-05T20:05:18.155Z,98580.77
2022-11-05T20:07:52.963Z,98582.77
2022-11-05T20:11:15.384Z,98581.29
2022-11-05T20:18:59.777Z,98594.30
2022-11-05T20:21:33.288Z,98596.61
2022-11-05T20:24:06.293Z,98597.19
2022-11-05T20:31:36.868Z,98593.36
2022-11-05T20:34:08.973Z,98594.67
2022-11-05T20:46:39.180Z,98614.30
2022-11-05T20:49:11.538Z,98620.20
2022-11-05T20:56:09.546Z,98610.24
2022-11-05T20:58:41.560Z,98612.61
2022-11-05T21:01:16.886Z,98611.41
2022-11-05T21:03:49.398Z,98609.78
2022-11-05T21:06:21.442Z,98613.48
2022-11-05T21:08:54.613Z,98615.99
2022-11-05T21:11:26.552Z,98618.73
2022-11-05T21:13:58.702Z,98616.34
2022-11-05T21:16:31.021Z,98615.36
2022-11-05T21:19:05.206Z,98618.16
2022-11-05T21:21:41.069Z,98620.80
2022-11-05T21:24:13.687Z,98621.95
2022-11-05T21:26:46.438Z,98623.09
2022-11-05T21:29:19.177Z,98628.34
2022-11-05T21:31:51.395Z,98624.37
2022-11-05T21:34:25.045Z,98623.92
2022-11-05T21:36:57.371Z,98621.02
2022-11-05T21:39:29.696Z,98621.31
2022-11-05T21:42:01.994Z,98620.00
2022-11-05T21:44:34.037Z,98621.20
2022-11-05T21:47:06.213Z,98620.98
2022-11-05T21:49:38.972Z,98622.52
2022-11-05T21:52:32.091Z,98627.43
2022-11-05T21:55:21.826Z,98630.27
2022-11-05T21:58:11.585Z,98635.47
2022-11-05T22:00:43.822Z,98631.65
2022-11-05T22:03:15.862Z,98632.65
2022-11-05T22:05:50.317Z,98626.94
2022-11-05T22:08:22.828Z,98630.24
2022-11-05T22:10:54.893Z,98629.56
2022-11-05T22:13:26.887Z,98629.48
2022-11-05T22:16:01.936Z,98625.95
2022-11-05T22:18:34.028Z,98624.44
2022-11-05T22:21:06.528Z,98623.35
2022-11-05T22:23:38.950Z,98624.23
2022-11-05T22:26:14.236Z,98621.23
2022-11-05T22:28:46.305Z,98619.98
2022-11-05T22:31:18.992Z,98620.80
2022-11-05T22:33:51.907Z,98621.48
2022-11-05T22:36:24.155Z,98623.02
2022-11-05T22:38:56.363Z,98620.86
2022-11-05T22:41:28.530Z,98623.75
2022-11-05T22:44:00.823Z,98622.72
2022-11-05T22:46:33.452Z,98622.62
2022-11-05T22:49:07.570Z,98622.13
2022-11-05T22:51:40.683Z,98622.23
2022-11-05T22:54:13.694Z,98624.30
2022-11-05T22:56:45.718Z,98625.15
2022-11-05T22:59:19.013Z,98629.13
2022-11-05T23:01:51.617Z,98626.48
2022-11-05T23:04:24.009Z,98627.17
2022-11-05T23:07:13.842Z,98628.14
2022-11-05T23:10:03.947Z,98632.91
2022-11-05T23:12:38.962Z,98634.56
2022-11-05T23:15:32.598Z,98636.20
2022-11-05T23:18:22.697Z,98642.39
2022-11-05T23:21:13.257Z,98645.41
2022-11-05T23:24:03.492Z,98644.84
2022-11-05T23:26:54.012Z,98648.98
2022-11-05T23:29:26.654Z,98648.31
2022-11-05T23:32:16.521Z,98649.77
2022-11-05T23:34:50.939Z,98652.08
2022-11-05T23:37:42.334Z,98649.91
2022-11-05T23:40:19.532Z,98653.14
2022-11-05T23:43:09.463Z,98662.05
2022-11-05T23:46:00.240Z,98664.70
2022-11-05T23:48:40.446Z,98665.23
2022-11-05T23:51:12.376Z,98664.37
2022-11-05T23:53:44.557Z,98664.02
2022-11-05T23:56:18.228Z,98667.88
2022-11-05T23:58:52.487Z,98665.50
